sensor_id;sensor_type;location;lat;lon;timestamp;temperature;humidity
15638;DHT22;26604;53.596;10.042;2022-11-09T00:00:38;19.50;1.00
15638;DHT22;26604;53.596;10.042;2022-11-09T00:03:05;19.50;1.00
15638;DHT22;26604;53.596;10.042;2022-11-09T00:05:32;19.50;1.00
15638;DHT22;26604;53.596;10.042;2022-11-09T00:07:59;19.50;1.00
15638;DHT22;26604;53.596;10.042;2022-11-09T00:10:27;19.50;1.00
15638;DHT22;26604;53.596;10.042;2022-11-09T00:12:53;19.50;1.00
15638;DHT22;26604;53.596;10.042;2022-11-09T00:15:20;19.50;1.00
15638;DHT22;26604;53.596;10.042;2022-11-09T00:17:47;19.50;1.00
15638;DHT22;26604;53.596;10.042;2022-11-09T00:20:14;19.50;1.00
15638;DHT22;26604;53.596;10.042;2022-11-09T00:22:41;19.50;1.00
15638;DHT22;26604;53.596;10.042;2022-11-09T00:25:09;19.50;1.00
15638;DHT22;26604;53.596;10.042;2022-11-09T00:27:37;19.50;1.00
15638;DHT22;26604;53.596;10.042;2022-11-09T00:30:04;19.50;1.00
15638;DHT22;26604;53.596;10.042;2022-11-09T00:32:32;19.50;1.00
15638;DHT22;26604;53.596;10.042;2022-11-09T00:34:58;19.50;1.00
15638;DHT22;26604;53.596;10.042;2022-11-09T00:37:25;19.50;1.00
15638;DHT22;26604;53.596;10.042;2022-11-09T00:39:54;19.50;1.00
15638;DHT22;26604;53.596;10.042;2022-11-09T00:42:21;19.50;1.00
15638;DHT22;26604;53.596;10.042;2022-11-09T00:44:49;19.50;1.00
15638;DHT22;26604;53.596;10.042;2022-11-09T00:47:16;19.50;1.00
15638;DHT22;26604;53.596;10.042;2022-11-09T00:49:43;19.50;1.00
15638;DHT22;26604;53.596;10.042;2022-11-09T00:52:10;19.50;1.00
15638;DHT22;26604;53.596;10.042;2022-11-09T00:54:37;19.50;1.00
15638;DHT22;26604;53.596;10.042;2022-11-09T00:57:04;19.50;1.00
15638;DHT22;26604;53.596;10.042;2022-11-09T00:59:30;19.50;1.00
15638;DHT22;26604;53.596;10.042;2022-11-09T01:01:58;19.50;1.00
15638;DHT22;26604;53.596;10.042;2022-11-09T01:04:25;19.50;1.00
15638;DHT22;26604;53.596;10.042;2022-11-09T01:06:52;19.50;1.00
15638;DHT22;26604;53.596;10.042;2022-11-09T01:09:19;19.50;1.00
15638;DHT22;26604;53.596;10.042;2022-11-09T01:11:46;19.50;1.00
15638;DHT22;26604;53.596;10.042;2022-11-09T01:14:13;19.50;1.00
15638;DHT22;26604;53.596;10.042;2022-11-09T01:16:39;19.50;1.00
15638;DHT22;26604;53.596;10.042;2022-11-09T01:19:08;19.50;1.00
15638;DHT22;26604;53.596;10.042;2022-11-09T01:21:34;19.50;1.00
15638;DHT22;26604;53.596;10.042;2022-11-09T01:24:02;19.50;1.00
15638;DHT22;26604;53.596;10.042;2022-11-09T01:26:29;19.50;1.00
15638;DHT22;26604;53.596;10.042;2022-11-09T01:28:56;19.50;1.00
15638;DHT22;26604;53.596;10.042;2022-11-09T01:31:23;19.50;1.00
15638;DHT22;26604;53.596;10.042;2022-11-09T01:33:49;19.50;1.00
15638;DHT22;26604;53.596;10.042;2022-11-09T01:36:20;19.50;1.00
15638;DHT22;26604;53.596;10.042;2022-11-09T01:38:47;19.50;1.00
15638;DHT22;26604;53.596;10.042;2022-11-09T01:41:17;19.50;1.00
15638;DHT22;26604;53.596;10.042;2022-11-09T01:43:44;19.50;1.00
15638;DHT22;26604;53.596;10.042;2022-11-09T01:46:16;19.50;1.00
15638;DHT22;26604;53.596;10.042;2022-11-09T01:48:46;19.50;1.00
15638;DHT22;26604;53.596;10.042;2022-11-09T01:51:21;19.50;1.00
15638;DHT22;26604;53.596;10.042;2022-11-09T01:53:53;19.50;1.00
15638;DHT22;26604;53.596;10.042;2022-11-09T01:56:22;19.50;1.00
15638;DHT22;26604;53.596;10.042;2022-11-09T01:58:53;19.50;1.00
15638;DHT22;26604;53.596;10.042;2022-11-09T02:01:21;19.50;1.00
15638;DHT22;26604;53.596;10.042;2022-11-09T02:03:51;19.50;1.00
15638;DHT22;26604;53.596;10.042;2022-11-09T02:06:22;19.50;1.00
15638;DHT22;26604;53.596;10.042;2022-11-09T02:08:53;19.50;1.00
15638;DHT22;26604;53.596;10.042;2022-11-09T02:11:22;19.50;1.00
15638;DHT22;26604;53.596;10.042;2022-11-09T02:13:52;19.50;1.00
15638;DHT22;26604;53.596;10.042;2022-11-09T02:16:21;19.50;1.00
15638;DHT22;26604;53.596;10.042;2022-11-09T02:18:51;19.50;1.00
15638;DHT22;26604;53.596;10.042;2022-11-09T02:21:20;19.50;1.00
15638;DHT22;26604;53.596;10.042;2022-11-09T02:23:49;19.50;1.00
15638;DHT22;26604;53.596;10.042;2022-11-09T02:26:21;19.50;1.00
15638;DHT22;26604;53.596;10.042;2022-11-09T02:28:50;19.50;1.00
15638;DHT22;26604;53.596;10.042;2022-11-09T02:31:19;19.50;1.00
15638;DHT22;26604;53.596;10.042;2022-11-09T02:33:55;19.50;1.00
15638;DHT22;26604;53.596;10.042;2022-11-09T02:36:26;19.50;1.00
15638;DHT22;26604;53.596;10.042;2022-11-09T02:38:54;19.50;1.00
15638;DHT22;26604;53.596;10.042;2022-11-09T02:41:22;19.50;1.00
15638;DHT22;26604;53.596;10.042;2022-11-09T02:43:50;19.50;1.00
15638;DHT22;26604;53.596;10.042;2022-11-09T02:46:34;19.50;1.00
15638;DHT22;26604;53.596;10.042;2022-11-09T02:49:02;19.50;1.00
15638;DHT22;26604;53.596;10.042;2022-11-09T02:51:30;19.50;1.00
15638;DHT22;26604;53.596;10.042;2022-11-09T02:53:57;19.80;1.00
15638;DHT22;26604;53.596;10.042;2022-11-09T02:56:24;19.50;1.00
15638;DHT22;26604;53.596;10.042;2022-11-09T02:58:51;19.50;1.00
15638;DHT22;26604;53.596;10.042;2022-11-09T03:01:18;19.50;1.00
15638;DHT22;26604;53.596;10.042;2022-11-09T03:03:45;19.50;1.00
15638;DHT22;26604;53.596;10.042;2022-11-09T03:09:35;19.50;1.00
15638;DHT22;26604;53.596;10.042;2022-11-09T03:12:02;19.50;1.00
15638;DHT22;26604;53.596;10.042;2022-11-09T03:14:48;19.50;1.00
15638;DHT22;26604;53.596;10.042;2022-11-09T03:17:15;19.50;1.00
15638;DHT22;26604;53.596;10.042;2022-11-09T03:19:43;19.50;1.00
15638;DHT22;26604;53.596;10.042;2022-11-09T03:22:10;19.50;1.00
15638;DHT22;26604;53.596;10.042;2022-11-09T03:24:38;19.50;1.00
15638;DHT22;26604;53.596;10.042;2022-11-09T03:27:05;19.50;1.00
15638;DHT22;26604;53.596;10.042;2022-11-09T03:29:32;19.50;1.00
15638;DHT22;26604;53.596;10.042;2022-11-09T03:31:59;19.50;1.00
15638;DHT22;26604;53.596;10.042;2022-11-09T03:34:26;19.50;1.00
15638;DHT22;26604;53.596;10.042;2022-11-09T03:36:53;19.50;1.00
15638;DHT22;26604;53.596;10.042;2022-11-09T03:39:19;19.50;1.00
15638;DHT22;26604;53.596;10.042;2022-11-09T03:41:48;19.50;1.00
15638;DHT22;26604;53.596;10.042;2022-11-09T03:44:15;19.50;1.00
15638;DHT22;26604;53.596;10.042;2022-11-09T03:46:42;19.50;1.00
15638;DHT22;26604;53.596;10.042;2022-11-09T03:49:09;19.50;1.00
15638;DHT22;26604;53.596;10.042;2022-11-09T03:51:36;19.50;1.00
15638;DHT22;26604;53.596;10.042;2022-11-09T03:54:03;19.50;1.00
15638;DHT22;26604;53.596;10.042;2022-11-09T03:56:30;19.50;1.00
15638;DHT22;26604;53.596;10.042;2022-11-09T03:58:58;19.50;1.00
15638;DHT22;26604;53.596;10.042;2022-11-09T04:01:25;19.50;1.00
15638;DHT22;26604;53.596;10.042;2022-11-09T04:03:52;19.50;1.00
15638;DHT22;26604;53.596;10.042;2022-11-09T04:06:19;19.50;1.00
15638;DHT22;26604;53.596;10.042;2022-11-09T04:08:45;19.50;1.00
15638;DHT22;26604;53.596;10.042;2022-11-09T04:11:12;19.20;1.00
15638;DHT22;26604;53.596;10.042;2022-11-09T04:13:39;19.50;1.00
15638;DHT22;26604;53.596;10.042;2022-11-09T04:16:07;19.50;1.00
15638;DHT22;26604;53.596;10.042;2022-11-09T04:18:34;19.50;1.00
15638;DHT22;26604;53.596;10.042;2022-11-09T04:21:01;19.50;1.00
15638;DHT22;26604;53.596;10.042;2022-11-09T04:23:28;19.50;1.00
15638;DHT22;26604;53.596;10.042;2022-11-09T04:25:57;19.40;1.00
15638;DHT22;26604;53.596;10.042;2022-11-09T04:28:24;19.50;1.00
15638;DHT22;26604;53.596;10.042;2022-11-09T04:30:51;19.50;1.00
15638;DHT22;26604;53.596;10.042;2022-11-09T04:33:19;19.50;1.00
15638;DHT22;26604;53.596;10.042;2022-11-09T04:35:46;19.50;1.00
15638;DHT22;26604;53.596;10.042;2022-11-09T04:38:13;19.50;1.00
15638;DHT22;26604;53.596;10.042;2022-11-09T04:40:40;19.50;1.00
15638;DHT22;26604;53.596;10.042;2022-11-09T04:43:12;19.50;1.00
15638;DHT22;26604;53.596;10.042;2022-11-09T04:45:40;19.50;1.00
15638;DHT22;26604;53.596;10.042;2022-11-09T04:48:09;19.40;1.00
15638;DHT22;26604;53.596;10.042;2022-11-09T04:50:37;19.50;1.00
15638;DHT22;26604;53.596;10.042;2022-11-09T04:53:06;19.40;1.00
15638;DHT22;26604;53.596;10.042;2022-11-09T04:55:33;19.50;1.00
15638;DHT22;26604;53.596;10.042;2022-11-09T04:57:59;19.50;1.00
15638;DHT22;26604;53.596;10.042;2022-11-09T05:00:26;19.50;1.00
15638;DHT22;26604;53.596;10.042;2022-11-09T05:02:53;19.40;1.00
15638;DHT22;26604;53.596;10.042;2022-11-09T05:05:20;19.40;1.00
15638;DHT22;26604;53.596;10.042;2022-11-09T05:07:48;19.40;1.00
15638;DHT22;26604;53.596;10.042;2022-11-09T05:10:15;19.50;1.00
15638;DHT22;26604;53.596;10.042;2022-11-09T05:12:42;19.40;1.00
15638;DHT22;26604;53.596;10.042;2022-11-09T05:15:09;19.50;1.00
15638;DHT22;26604;53.596;10.042;2022-11-09T05:17:36;19.40;1.00
15638;DHT22;26604;53.596;10.042;2022-11-09T05:20:03;19.40;1.00
15638;DHT22;26604;53.596;10.042;2022-11-09T05:22:30;19.50;1.00
15638;DHT22;26604;53.596;10.042;2022-11-09T05:25:16;19.40;1.00
15638;DHT22;26604;53.596;10.042;2022-11-09T05:27:43;19.50;1.00
15638;DHT22;26604;53.596;10.042;2022-11-09T05:30:10;19.50;1.00
15638;DHT22;26604;53.596;10.042;2022-11-09T05:32:38;19.50;1.00
15638;DHT22;26604;53.596;10.042;2022-11-09T05:35:06;19.50;1.00
15638;DHT22;26604;53.596;10.042;2022-11-09T05:37:33;19.50;1.00
15638;DHT22;26604;53.596;10.042;2022-11-09T05:40:00;19.50;1.00
15638;DHT22;26604;53.596;10.042;2022-11-09T05:42:28;19.40;1.00
15638;DHT22;26604;53.596;10.042;2022-11-09T05:44:55;19.40;1.00
15638;DHT22;26604;53.596;10.042;2022-11-09T05:47:22;19.40;1.00
15638;DHT22;26604;53.596;10.042;2022-11-09T05:49:49;19.40;1.00
15638;DHT22;26604;53.596;10.042;2022-11-09T05:52:16;19.40;1.00
15638;DHT22;26604;53.596;10.042;2022-11-09T05:54:42;19.40;1.00
15638;DHT22;26604;53.596;10.042;2022-11-09T05:57:09;19.40;1.00
15638;DHT22;26604;53.596;10.042;2022-11-09T05:59:38;19.40;1.00
15638;DHT22;26604;53.596;10.042;2022-11-09T06:02:04;19.40;1.00
15638;DHT22;26604;53.596;10.042;2022-11-09T06:04:31;19.40;1.00
15638;DHT22;26604;53.596;10.042;2022-11-09T06:06:58;19.40;1.00
15638;DHT22;26604;53.596;10.042;2022-11-09T06:09:25;19.40;1.00
15638;DHT22;26604;53.596;10.042;2022-11-09T06:11:52;19.40;1.00
15638;DHT22;26604;53.596;10.042;2022-11-09T06:14:18;19.40;1.00
15638;DHT22;26604;53.596;10.042;2022-11-09T06:16:47;19.40;1.00
15638;DHT22;26604;53.596;10.042;2022-11-09T06:19:13;19.40;1.00
15638;DHT22;26604;53.596;10.042;2022-11-09T06:21:40;19.40;1.00
15638;DHT22;26604;53.596;10.042;2022-11-09T06:24:08;19.40;1.00
15638;DHT22;26604;53.596;10.042;2022-11-09T06:26:35;19.40;1.00
15638;DHT22;26604;53.596;10.042;2022-11-09T06:29:02;19.40;1.00
15638;DHT22;26604;53.596;10.042;2022-11-09T06:31:29;19.40;1.00
15638;DHT22;26604;53.596;10.042;2022-11-09T06:33:58;19.40;1.00
15638;DHT22;26604;53.596;10.042;2022-11-09T06:36:26;19.40;1.00
15638;DHT22;26604;53.596;10.042;2022-11-09T06:38:52;19.50;1.00
15638;DHT22;26604;53.596;10.042;2022-11-09T06:41:19;19.40;1.00
15638;DHT22;26604;53.596;10.042;2022-11-09T06:43:46;19.40;1.00
15638;DHT22;26604;53.596;10.042;2022-11-09T06:46:13;19.40;1.00
15638;DHT22;26604;53.596;10.042;2022-11-09T06:48:42;19.40;1.00
15638;DHT22;26604;53.596;10.042;2022-11-09T06:51:10;19.40;1.00
15638;DHT22;26604;53.596;10.042;2022-11-09T06:53:37;19.40;1.00
15638;DHT22;26604;53.596;10.042;2022-11-09T06:56:06;19.40;1.00
15638;DHT22;26604;53.596;10.042;2022-11-09T06:58:34;20.00;1.00
15638;DHT22;26604;53.596;10.042;2022-11-09T07:01:07;19.40;1.00
15638;DHT22;26604;53.596;10.042;2022-11-09T07:03:34;19.40;1.00
15638;DHT22;26604;53.596;10.042;2022-11-09T07:06:04;19.40;1.00
15638;DHT22;26604;53.596;10.042;2022-11-09T07:08:33;19.50;1.00
15638;DHT22;26604;53.596;10.042;2022-11-09T07:11:04;19.60;1.00
15638;DHT22;26604;53.596;10.042;2022-11-09T07:13:31;19.80;1.00
15638;DHT22;26604;53.596;10.042;2022-11-09T07:15:58;19.90;1.00
15638;DHT22;26604;53.596;10.042;2022-11-09T07:18:25;20.10;1.00
15638;DHT22;26604;53.596;10.042;2022-11-09T07:20:52;20.20;1.00
15638;DHT22;26604;53.596;10.042;2022-11-09T07:23:19;20.30;1.00
15638;DHT22;26604;53.596;10.042;2022-11-09T07:25:47;20.40;1.00
15638;DHT22;26604;53.596;10.042;2022-11-09T07:28:14;20.40;1.00
15638;DHT22;26604;53.596;10.042;2022-11-09T07:30:41;20.50;1.00
15638;DHT22;26604;53.596;10.042;2022-11-09T07:33:13;20.50;1.00
15638;DHT22;26604;53.596;10.042;2022-11-09T07:35:42;20.50;1.00
15638;DHT22;26604;53.596;10.042;2022-11-09T07:38:09;20.50;1.00
15638;DHT22;26604;53.596;10.042;2022-11-09T07:40:36;20.50;1.00
15638;DHT22;26604;53.596;10.042;2022-11-09T07:43:05;20.50;1.00
15638;DHT22;26604;53.596;10.042;2022-11-09T07:45:33;20.40;1.00
15638;DHT22;26604;53.596;10.042;2022-11-09T07:48:02;20.40;1.00
15638;DHT22;26604;53.596;10.042;2022-11-09T07:50:30;20.40;1.00
15638;DHT22;26604;53.596;10.042;2022-11-09T07:52:58;20.40;1.00
15638;DHT22;26604;53.596;10.042;2022-11-09T07:55:27;20.40;1.00
15638;DHT22;26604;53.596;10.042;2022-11-09T07:57:55;20.30;1.00
15638;DHT22;26604;53.596;10.042;2022-11-09T08:00:23;20.30;1.00
15638;DHT22;26604;53.596;10.042;2022-11-09T08:02:50;20.30;1.00
15638;DHT22;26604;53.596;10.042;2022-11-09T08:05:17;20.20;1.00
15638;DHT22;26604;53.596;10.042;2022-11-09T08:07:44;20.20;1.00
15638;DHT22;26604;53.596;10.042;2022-11-09T08:10:11;20.20;1.00
15638;DHT22;26604;53.596;10.042;2022-11-09T08:12:38;20.20;1.00
15638;DHT22;26604;53.596;10.042;2022-11-09T08:15:09;20.20;1.00
15638;DHT22;26604;53.596;10.042;2022-11-09T08:17:37;20.10;1.00
15638;DHT22;26604;53.596;10.042;2022-11-09T08:20:05;20.10;1.00
15638;DHT22;26604;53.596;10.042;2022-11-09T08:22:32;20.10;1.00
15638;DHT22;26604;53.596;10.042;2022-11-09T08:24:59;20.10;1.00
15638;DHT22;26604;53.596;10.042;2022-11-09T08:27:29;20.00;1.00
15638;DHT22;26604;53.596;10.042;2022-11-09T08:29:56;20.00;1.00
15638;DHT22;26604;53.596;10.042;2022-11-09T08:32:22;20.00;1.00
15638;DHT22;26604;53.596;10.042;2022-11-09T08:34:51;20.00;1.00
15638;DHT22;26604;53.596;10.042;2022-11-09T08:37:17;20.00;1.00
15638;DHT22;26604;53.596;10.042;2022-11-09T08:39:44;20.00;1.00
15638;DHT22;26604;53.596;10.042;2022-11-09T08:42:11;19.90;1.00
15638;DHT22;26604;53.596;10.042;2022-11-09T08:44:38;19.90;1.00
15638;DHT22;26604;53.596;10.042;2022-11-09T08:47:05;19.90;1.00
15638;DHT22;26604;53.596;10.042;2022-11-09T08:49:32;19.90;1.00
15638;DHT22;26604;53.596;10.042;2022-11-09T08:52:00;19.90;1.00
15638;DHT22;26604;53.596;10.042;2022-11-09T08:54:27;19.90;1.00
15638;DHT22;26604;53.596;10.042;2022-11-09T08:56:54;19.90;1.00
15638;DHT22;26604;53.596;10.042;2022-11-09T08:59:22;19.90;1.00
15638;DHT22;26604;53.596;10.042;2022-11-09T09:01:49;19.90;1.00
15638;DHT22;26604;53.596;10.042;2022-11-09T09:04:15;19.90;1.00
15638;DHT22;26604;53.596;10.042;2022-11-09T09:06:42;19.90;1.00
15638;DHT22;26604;53.596;10.042;2022-11-09T09:09:11;19.90;1.00
15638;DHT22;26604;53.596;10.042;2022-11-09T09:11:37;19.90;1.00
15638;DHT22;26604;53.596;10.042;2022-11-09T09:14:04;19.90;1.00
15638;DHT22;26604;53.596;10.042;2022-11-09T09:16:32;20.00;1.00
15638;DHT22;26604;53.596;10.042;2022-11-09T09:18:58;20.10;1.00
15638;DHT22;26604;53.596;10.042;2022-11-09T09:21:25;20.20;1.00
15638;DHT22;26604;53.596;10.042;2022-11-09T09:23:52;20.20;1.00
15638;DHT22;26604;53.596;10.042;2022-11-09T09:26:21;20.30;1.00
15638;DHT22;26604;53.596;10.042;2022-11-09T09:28:49;20.30;1.00
15638;DHT22;26604;53.596;10.042;2022-11-09T09:31:16;20.40;1.00
15638;DHT22;26604;53.596;10.042;2022-11-09T09:33:43;20.40;1.00
15638;DHT22;26604;53.596;10.042;2022-11-09T09:36:15;20.40;1.00
15638;DHT22;26604;53.596;10.042;2022-11-09T09:38:42;20.40;1.00
15638;DHT22;26604;53.596;10.042;2022-11-09T09:41:17;20.40;1.00
15638;DHT22;26604;53.596;10.042;2022-11-09T09:43:51;20.40;1.00
15638;DHT22;26604;53.596;10.042;2022-11-09T09:46:25;20.40;1.00
15638;DHT22;26604;53.596;10.042;2022-11-09T09:48:58;20.40;1.00
15638;DHT22;26604;53.596;10.042;2022-11-09T09:51:31;20.40;1.00
15638;DHT22;26604;53.596;10.042;2022-11-09T09:54:04;20.40;1.00
15638;DHT22;26604;53.596;10.042;2022-11-09T09:56:33;20.40;1.00
15638;DHT22;26604;53.596;10.042;2022-11-09T09:59:12;20.30;1.00
15638;DHT22;26604;53.596;10.042;2022-11-09T10:01:42;20.30;1.00
15638;DHT22;26604;53.596;10.042;2022-11-09T10:04:16;20.30;1.00
15638;DHT22;26604;53.596;10.042;2022-11-09T10:06:56;20.30;1.00
15638;DHT22;26604;53.596;10.042;2022-11-09T10:09:34;20.30;1.00
15638;DHT22;26604;53.596;10.042;2022-11-09T10:12:14;20.20;1.00
15638;DHT22;26604;53.596;10.042;2022-11-09T10:15:00;20.20;1.00
15638;DHT22;26604;53.596;10.042;2022-11-09T10:17:37;20.20;1.00
15638;DHT22;26604;53.596;10.042;2022-11-09T10:23:12;20.20;1.00
15638;DHT22;26604;53.596;10.042;2022-11-09T10:25:44;20.10;1.00
15638;DHT22;26604;53.596;10.042;2022-11-09T10:28:14;20.10;1.00
15638;DHT22;26604;53.596;10.042;2022-11-09T10:30:43;20.10;1.00
15638;DHT22;26604;53.596;10.042;2022-11-09T10:33:14;20.10;1.00
15638;DHT22;26604;53.596;10.042;2022-11-09T10:35:44;20.10;1.00
15638;DHT22;26604;53.596;10.042;2022-11-09T10:38:16;20.10;1.00
15638;DHT22;26604;53.596;10.042;2022-11-09T10:40:51;20.10;1.00
15638;DHT22;26604;53.596;10.042;2022-11-09T10:43:18;20.00;1.00
15638;DHT22;26604;53.596;10.042;2022-11-09T10:45:57;20.00;1.00
15638;DHT22;26604;53.596;10.042;2022-11-09T10:48:31;20.00;1.00
15638;DHT22;26604;53.596;10.042;2022-11-09T10:50:58;20.00;1.00
15638;DHT22;26604;53.596;10.042;2022-11-09T10:53:26;20.00;1.00
15638;DHT22;26604;53.596;10.042;2022-11-09T10:55:54;20.00;1.00
15638;DHT22;26604;53.596;10.042;2022-11-09T10:58:29;20.00;1.00
15638;DHT22;26604;53.596;10.042;2022-11-09T11:01:01;20.00;1.00
15638;DHT22;26604;53.596;10.042;2022-11-09T11:03:30;20.00;1.00
15638;DHT22;26604;53.596;10.042;2022-11-09T11:05:59;20.00;1.00
15638;DHT22;26604;53.596;10.042;2022-11-09T11:08:38;20.00;1.00
15638;DHT22;26604;53.596;10.042;2022-11-09T11:11:07;20.00;1.00
15638;DHT22;26604;53.596;10.042;2022-11-09T11:13:34;20.00;1.00
15638;DHT22;26604;53.596;10.042;2022-11-09T11:16:13;20.00;1.00
15638;DHT22;26604;53.596;10.042;2022-11-09T11:18:44;20.00;1.00
15638;DHT22;26604;53.596;10.042;2022-11-09T11:21:14;20.10;1.00
15638;DHT22;26604;53.596;10.042;2022-11-09T11:23:42;20.20;1.00
15638;DHT22;26604;53.596;10.042;2022-11-09T11:26:23;20.20;1.00
15638;DHT22;26604;53.596;10.042;2022-11-09T11:28:54;20.30;1.00
15638;DHT22;26604;53.596;10.042;2022-11-09T11:31:24;20.40;1.00
15638;DHT22;26604;53.596;10.042;2022-11-09T11:33:51;20.50;1.00
15638;DHT22;26604;53.596;10.042;2022-11-09T11:36:23;20.60;1.00
15638;DHT22;26604;53.596;10.042;2022-11-09T11:38:55;20.60;1.00
15638;DHT22;26604;53.596;10.042;2022-11-09T11:41:52;20.60;1.00
15638;DHT22;26604;53.596;10.042;2022-11-09T11:44:34;20.70;1.00
15638;DHT22;26604;53.596;10.042;2022-11-09T11:47:09;20.70;1.00
15638;DHT22;26604;53.596;10.042;2022-11-09T11:49:57;20.70;1.00
15638;DHT22;26604;53.596;10.042;2022-11-09T11:52:34;20.60;1.00
15638;DHT22;26604;53.596;10.042;2022-11-09T11:55:16;20.60;1.00
15638;DHT22;26604;53.596;10.042;2022-11-09T11:57:57;20.60;1.00
15638;DHT22;26604;53.596;10.042;2022-11-09T12:00:30;20.60;1.00
15638;DHT22;26604;53.596;10.042;2022-11-09T12:03:12;20.60;1.00
15638;DHT22;26604;53.596;10.042;2022-11-09T12:06:04;20.50;1.00
15638;DHT22;26604;53.596;10.042;2022-11-09T12:08:46;20.50;1.00
15638;DHT22;26604;53.596;10.042;2022-11-09T12:11:28;20.50;1.00
15638;DHT22;26604;53.596;10.042;2022-11-09T12:14:10;20.50;1.00
15638;DHT22;26604;53.596;10.042;2022-11-09T12:16:45;20.50;1.00
15638;DHT22;26604;53.596;10.042;2022-11-09T12:19:27;20.40;1.00
15638;DHT22;26604;53.596;10.042;2022-11-09T12:22:04;20.40;1.00
15638;DHT22;26604;53.596;10.042;2022-11-09T12:24:37;20.40;1.00
15638;DHT22;26604;53.596;10.042;2022-11-09T12:27:21;20.40;1.00
15638;DHT22;26604;53.596;10.042;2022-11-09T12:29:59;20.30;1.00
15638;DHT22;26604;53.596;10.042;2022-11-09T12:32:35;20.30;1.00
15638;DHT22;26604;53.596;10.042;2022-11-09T12:35:27;20.30;1.00
15638;DHT22;26604;53.596;10.042;2022-11-09T12:38:01;20.30;1.00
15638;DHT22;26604;53.596;10.042;2022-11-09T12:40:33;20.20;1.00
15638;DHT22;26604;53.596;10.042;2022-11-09T12:43:11;20.20;1.00
15638;DHT22;26604;53.596;10.042;2022-11-09T12:45:41;20.20;1.00
15638;DHT22;26604;53.596;10.042;2022-11-09T12:48:17;20.20;1.00
15638;DHT22;26604;53.596;10.042;2022-11-09T12:50:48;20.20;1.00
15638;DHT22;26604;53.596;10.042;2022-11-09T12:53:15;20.20;1.00
15638;DHT22;26604;53.596;10.042;2022-11-09T12:55:46;20.20;1.00
15638;DHT22;26604;53.596;10.042;2022-11-09T12:58:20;20.40;1.00
15638;DHT22;26604;53.596;10.042;2022-11-09T13:00:50;20.10;1.00
15638;DHT22;26604;53.596;10.042;2022-11-09T13:03:23;20.10;1.00
15638;DHT22;26604;53.596;10.042;2022-11-09T13:06:16;20.10;1.00
15638;DHT22;26604;53.596;10.042;2022-11-09T13:08:56;20.10;1.00
15638;DHT22;26604;53.596;10.042;2022-11-09T13:11:36;20.10;1.00
15638;DHT22;26604;53.596;10.042;2022-11-09T13:14:34;20.10;1.00
15638;DHT22;26604;53.596;10.042;2022-11-09T13:26:04;20.00;1.00
15638;DHT22;26604;53.596;10.042;2022-11-09T13:31:58;20.00;1.00
15638;DHT22;26604;53.596;10.042;2022-11-09T13:34:42;20.00;1.00
15638;DHT22;26604;53.596;10.042;2022-11-09T13:37:45;20.00;1.00
15638;DHT22;26604;53.596;10.042;2022-11-09T13:40:39;20.00;1.00
15638;DHT22;26604;53.596;10.042;2022-11-09T13:43:19;20.00;1.00
15638;DHT22;26604;53.596;10.042;2022-11-09T13:45:48;20.10;1.00
15638;DHT22;26604;53.596;10.042;2022-11-09T13:48:37;20.20;1.00
15638;DHT22;26604;53.596;10.042;2022-11-09T13:51:07;20.30;1.00
15638;DHT22;26604;53.596;10.042;2022-11-09T13:53:50;20.40;1.00
15638;DHT22;26604;53.596;10.042;2022-11-09T13:56:22;20.50;1.00
15638;DHT22;26604;53.596;10.042;2022-11-09T13:58:53;20.50;1.00
15638;DHT22;26604;53.596;10.042;2022-11-09T14:01:27;20.60;1.00
15638;DHT22;26604;53.596;10.042;2022-11-09T14:03:54;20.60;1.00
15638;DHT22;26604;53.596;10.042;2022-11-09T14:06:21;20.60;1.00
15638;DHT22;26604;53.596;10.042;2022-11-09T14:08:49;20.60;1.00
15638;DHT22;26604;53.596;10.042;2022-11-09T14:11:31;20.60;1.00
15638;DHT22;26604;53.596;10.042;2022-11-09T14:14:32;20.60;1.00
15638;DHT22;26604;53.596;10.042;2022-11-09T14:17:09;20.60;1.00
15638;DHT22;26604;53.596;10.042;2022-11-09T14:19:45;20.60;1.00
15638;DHT22;26604;53.596;10.042;2022-11-09T14:22:17;20.50;1.00
15638;DHT22;26604;53.596;10.042;2022-11-09T14:24:45;20.50;1.00
15638;DHT22;26604;53.596;10.042;2022-11-09T14:27:15;20.50;1.00
15638;DHT22;26604;53.596;10.042;2022-11-09T14:29:51;20.50;1.00
15638;DHT22;26604;53.596;10.042;2022-11-09T14:32:25;20.50;1.00
15638;DHT22;26604;53.596;10.042;2022-11-09T14:35:07;20.40;1.00
15638;DHT22;26604;53.596;10.042;2022-11-09T14:37:34;20.40;1.00
15638;DHT22;26604;53.596;10.042;2022-11-09T14:40:02;20.40;1.00
15638;DHT22;26604;53.596;10.042;2022-11-09T14:42:29;20.40;1.00
15638;DHT22;26604;53.596;10.042;2022-11-09T14:44:58;20.30;1.00
15638;DHT22;26604;53.596;10.042;2022-11-09T14:47:29;20.30;1.00
15638;DHT22;26604;53.596;10.042;2022-11-09T14:49:57;20.30;1.00
15638;DHT22;26604;53.596;10.042;2022-11-09T14:52:27;20.30;1.00
15638;DHT22;26604;53.596;10.042;2022-11-09T14:54:54;20.20;1.00
15638;DHT22;26604;53.596;10.042;2022-11-09T14:57:22;20.20;1.00
15638;DHT22;26604;53.596;10.042;2022-11-09T14:59:49;20.20;1.00
15638;DHT22;26604;53.596;10.042;2022-11-09T15:02:19;20.20;1.00
15638;DHT22;26604;53.596;10.042;2022-11-09T15:04:54;20.20;1.00
15638;DHT22;26604;53.596;10.042;2022-11-09T15:07:24;20.10;1.00
15638;DHT22;26604;53.596;10.042;2022-11-09T15:09:55;20.10;1.00
15638;DHT22;26604;53.596;10.042;2022-11-09T15:12:23;20.10;1.00
15638;DHT22;26604;53.596;10.042;2022-11-09T15:14:52;20.10;1.00
15638;DHT22;26604;53.596;10.042;2022-11-09T15:17:23;20.10;1.00
15638;DHT22;26604;53.596;10.042;2022-11-09T15:19:53;20.10;1.00
15638;DHT22;26604;53.596;10.042;2022-11-09T15:22:46;20.00;1.00
15638;DHT22;26604;53.596;10.042;2022-11-09T15:25:25;20.00;1.00
15638;DHT22;26604;53.596;10.042;2022-11-09T15:31:10;20.00;1.00
15638;DHT22;26604;53.596;10.042;2022-11-09T15:33:47;20.00;1.00
15638;DHT22;26604;53.596;10.042;2022-11-09T15:36:23;20.00;1.00
15638;DHT22;26604;53.596;10.042;2022-11-09T15:39:05;20.00;1.00
15638;DHT22;26604;53.596;10.042;2022-11-09T15:41:34;19.90;1.00
15638;DHT22;26604;53.596;10.042;2022-11-09T15:44:02;19.90;1.00
15638;DHT22;26604;53.596;10.042;2022-11-09T15:46:33;19.90;1.00
15638;DHT22;26604;53.596;10.042;2022-11-09T15:49:13;19.90;1.00
15638;DHT22;26604;53.596;10.042;2022-11-09T15:51:41;19.90;1.00
15638;DHT22;26604;53.596;10.042;2022-11-09T15:54:09;19.90;1.00
15638;DHT22;26604;53.596;10.042;2022-11-09T15:56:36;19.90;1.00
15638;DHT22;26604;53.596;10.042;2022-11-09T15:59:02;19.90;1.00
15638;DHT22;26604;53.596;10.042;2022-11-09T16:01:30;19.90;1.00
15638;DHT22;26604;53.596;10.042;2022-11-09T16:03:57;20.00;1.00
15638;DHT22;26604;53.596;10.042;2022-11-09T16:06:25;20.10;1.00
15638;DHT22;26604;53.596;10.042;2022-11-09T16:08:53;20.10;1.00
15638;DHT22;26604;53.596;10.042;2022-11-09T16:11:23;20.20;1.00